Terminal Aerodrome Forecast
Issued by NWS

Home | Current Version | Previous Version | Text Only | Print | Product List | Glossary On
Versions: 1 2 3 4 5 6 7 8 9 10 11 12 13 14 15
000
FTUS45 KGGW 170520
TAFSDY
TAF
KSDY 170520Z 1706/1806 17004KT P6SM FEW110
     FM171900 29006KT P6SM SCT150
     FM180000 33011KT P6SM SCT120
     FM180300 34005KT P6SM FEW120=

USA.gov is the U.S. government's official web portal to all federal, state and local government web resources and services.